Time;durP1;ratioP1;P1;durP2;ratioP2;P2;SDS_P1;SDS_P2;PMS_P1;PMS_P2;Temp;Humidity;BMP_temperature;BMP_pressure;BME280_temperature;BME280_humidity;BME280_pressure;Samples;Min_cycle;Max_cycle;Signal;HPM_P1;HPM_P2
2022/03/12 00:01:27;;;;;;;20.52;13.55;;;19.90;48.90;;;;;;5096792;28;20040;-71
2022/03/12 00:03:54;;;;;;;8.55;7.10;;;19.90;48.90;;;;;;5097383;28;20054;-72
2022/03/12 00:06:24;;;;;;;7.15;5.03;;;19.90;49.10;;;;;;5097075;28;20048;-72
2022/03/12 00:08:55;;;;;;;6.80;3.53;;;19.80;48.90;;;;;;5097208;28;20048;-71
2022/03/12 00:11:25;;;;;;;6.57;3.70;;;19.70;48.80;;;;;;5097122;28;20048;-72
2022/03/12 00:13:53;;;;;;;22.88;18.40;;;19.80;48.80;;;;;;5096598;28;20044;-71
2022/03/12 00:16:23;;;;;;;8.10;5.47;;;19.80;48.70;;;;;;5097096;28;20032;-71
2022/03/12 00:18:55;;;;;;;6.72;4.45;;;19.80;48.50;;;;;;5097055;28;20079;-72
2022/03/12 00:21:34;;;;;;;5.93;3.83;;;19.70;48.40;;;;;;5097104;28;20044;-71
2022/03/12 00:24:00;;;;;;;5.78;3.63;;;19.80;48.30;;;;;;5096938;28;20048;-71
2022/03/12 00:26:28;;;;;;;5.15;3.78;;;19.70;48.30;;;;;;5096561;28;20047;-72
2022/03/12 00:28:55;;;;;;;9.93;8.13;;;19.80;48.40;;;;;;5096811;28;20104;-70
2022/03/12 00:31:23;;;;;;;8.90;4.60;;;19.70;48.40;;;;;;5096703;28;20116;-71
2022/03/12 00:33:49;;;;;;;21.23;13.57;;;19.60;48.20;;;;;;5096839;28;20040;-71
2022/03/12 00:36:17;;;;;;;20.42;12.77;;;19.80;48.20;;;;;;5096684;28;20037;-71
2022/03/12 00:38:45;;;;;;;4.72;3.60;;;19.80;48.00;;;;;;5096829;28;20100;-71
2022/03/12 00:41:13;;;;;;;6.70;4.10;;;19.70;47.90;;;;;;5096648;28;20524;-72
2022/03/12 00:43:40;;;;;;;8.63;4.63;;;19.80;47.80;;;;;;5096929;28;20072;-71
2022/03/12 00:46:06;;;;;;;5.38;3.83;;;19.80;47.70;;;;;;5096854;28;20048;-71
2022/03/12 00:48:33;;;;;;;4.93;3.42;;;19.80;47.60;;;;;;5096444;28;20048;-72
2022/03/12 00:50:59;;;;;;;6.18;4.80;;;19.80;47.50;;;;;;5096755;28;20044;-71
2022/03/12 00:53:26;;;;;;;9.10;7.40;;;19.80;47.50;;;;;;5096663;28;20037;-70
2022/03/12 00:55:52;;;;;;;6.75;4.15;;;19.80;47.40;;;;;;5096500;28;20037;-71
2022/03/12 00:58:20;;;;;;;5.47;3.85;;;19.90;47.40;;;;;;5079079;28;20048;-72
2022/03/12 01:00:48;;;;;;;7.13;3.67;;;19.80;47.30;;;;;;5096477;28;20044;-71
2022/03/12 01:03:14;;;;;;;4.65;3.30;;;19.80;47.40;;;;;;5096414;28;20083;-72
2022/03/12 01:06:04;;;;;;;5.45;3.42;;;19.80;47.50;;;;;;5096642;28;20100;-71
2022/03/12 01:08:32;;;;;;;7.22;4.47;;;19.70;47.60;;;;;;5086856;28;20052;-71
2022/03/12 01:11:02;;;;;;;12.68;4.22;;;19.80;47.50;;;;;;5112783;28;20072;-71
2022/03/12 01:13:28;;;;;;;9.30;4.60;;;19.70;47.60;;;;;;5096490;28;20048;-71
2022/03/12 01:15:54;;;;;;;4.80;3.30;;;19.60;47.50;;;;;;5078984;28;20036;-71
2022/03/12 01:18:23;;;;;;;8.38;3.80;;;19.60;47.50;;;;;;5096108;28;20032;-71
2022/03/12 01:20:52;;;;;;;4.75;3.42;;;19.60;47.50;;;;;;5096379;28;20041;-71
2022/03/12 01:23:23;;;;;;;3.83;2.85;;;19.60;47.50;;;;;;5096261;28;20055;-71
2022/03/12 01:25:50;;;;;;;4.88;2.72;;;19.60;47.40;;;;;;5098161;28;20033;-71
2022/03/12 01:28:18;;;;;;;4.35;2.75;;;19.60;47.20;;;;;;5100220;28;20108;-71
2022/03/12 01:30:44;;;;;;;8.02;3.20;;;19.60;47.20;;;;;;5100128;28;20045;-72
2022/03/12 01:33:11;;;;;;;3.97;2.75;;;19.60;47.10;;;;;;5100272;28;20092;-71
2022/03/12 01:35:37;;;;;;;4.95;3.35;;;19.60;47.00;;;;;;5100262;28;20063;-71
2022/03/12 01:38:04;;;;;;;4.82;2.90;;;19.50;46.90;;;;;;5100155;28;20033;-71
2022/03/12 01:40:31;;;;;;;4.85;3.08;;;19.70;47.10;;;;;;5100069;28;20037;-71
2022/03/12 01:42:57;;;;;;;4.30;2.92;;;19.60;47.00;;;;;;5099932;28;20037;-71
2022/03/12 01:45:29;;;;;;;4.22;3.00;;;19.50;47.10;;;;;;5100038;28;20052;-71
2022/03/12 01:47:57;;;;;;;4.15;3.58;;;19.50;47.10;;;;;;5099919;28;20055;-70
2022/03/12 01:50:31;;;;;;;4.55;2.90;;;19.40;47.10;;;;;;5099765;28;20100;-71
2022/03/12 01:53:02;;;;;;;2.75;2.50;;;19.50;47.20;;;;;;5099833;28;20041;-71
2022/03/12 01:55:32;;;;;;;4.57;2.65;;;19.30;47.00;;;;;;5099956;28;20040;-71
2022/03/12 01:58:02;;;;;;;4.72;3.00;;;19.40;46.80;;;;;;5099511;28;20028;-71
2022/03/12 02:00:43;;;;;;;4.13;2.80;;;19.50;46.80;;;;;;5099340;28;20025;-71
2022/03/12 02:03:11;;;;;;;4.05;2.70;;;19.50;46.70;;;;;;5099475;28;20082;-72
2022/03/12 02:05:38;;;;;;;6.07;3.25;;;19.50;46.50;;;;;;5099533;28;20040;-71
2022/03/12 02:08:05;;;;;;;6.30;3.50;;;19.50;46.40;;;;;;5099503;28;20083;-71
2022/03/12 02:10:34;;;;;;;4.88;3.15;;;19.60;46.30;;;;;;5099626;28;20044;-71
2022/03/12 02:13:00;;;;;;;5.25;2.80;;;19.60;46.20;;;;;;5099342;28;20068;-71
2022/03/12 02:15:29;;;;;;;5.75;3.30;;;19.50;46.10;;;;;;5099317;28;20043;-71
2022/03/12 02:17:55;;;;;;;5.82;3.20;;;19.70;46.20;;;;;;5099193;28;20040;-71
2022/03/12 02:20:22;;;;;;;6.68;3.25;;;19.60;46.10;;;;;;5099388;28;20032;-71
2022/03/12 02:22:55;;;;;;;4.78;3.17;;;19.50;46.20;;;;;;5081995;28;20143;-71
2022/03/12 02:25:32;;;;;;;9.35;3.67;;;19.40;46.10;;;;;;5099297;28;20028;-71
2022/03/12 02:28:00;;;;;;;4.53;3.20;;;19.40;46.30;;;;;;5099132;28;20409;-72
2022/03/12 02:30:44;;;;;;;5.60;3.75;;;19.30;46.40;;;;;;5081558;28;20039;-71
2022/03/12 02:33:13;;;;;;;7.45;3.50;;;19.30;46.50;;;;;;5098804;28;20074;-71
2022/03/12 02:35:42;;;;;;;5.72;3.33;;;19.30;47.00;;;;;;5098720;28;20037;-73
2022/03/12 02:38:08;;;;;;;3.95;3.00;;;19.30;46.60;;;;;;5098826;28;20037;-71
2022/03/12 02:40:35;;;;;;;5.63;3.28;;;19.30;46.70;;;;;;5081295;28;20047;-71
2022/03/12 02:43:06;;;;;;;4.60;3.47;;;19.30;46.90;;;;;;5099068;28;20047;-71
2022/03/12 02:45:32;;;;;;;5.25;3.70;;;19.30;46.90;;;;;;5098850;28;20092;-71
2022/03/12 02:47:58;;;;;;;5.93;3.60;;;19.20;46.60;;;;;;5098586;28;20041;-71
2022/03/12 02:50:25;;;;;;;7.10;3.80;;;19.30;46.60;;;;;;5098723;28;20054;-71
2022/03/12 02:52:54;;;;;;;4.65;3.33;;;19.20;46.40;;;;;;5098581;28;20040;-71
2022/03/12 02:55:22;;;;;;;5.38;3.45;;;19.20;46.30;;;;;;5098797;28;20068;-71
2022/03/12 02:57:50;;;;;;;5.15;3.30;;;19.40;46.30;;;;;;5098571;28;20037;-71
2022/03/12 03:00:18;;;;;;;8.30;3.72;;;19.30;46.20;;;;;;5098369;28;20036;-72
2022/03/12 03:02:56;;;;;;;5.47;2.97;;;19.30;46.10;;;;;;5114599;28;20055;-72
2022/03/12 03:08:03;;;;;;;7.50;3.53;;;19.30;45.90;;;;;;5098271;28;20047;-71
2022/03/12 03:10:34;;;;;;;4.57;3.17;;;19.30;45.80;;;;;;5098378;28;20100;-70
2022/03/12 03:13:21;;;;;;;4.50;2.70;;;19.20;45.60;;;;;;5098342;28;20040;-71
2022/03/12 03:16:01;;;;;;;8.13;3.42;;;19.30;45.60;;;;;;5080800;28;20059;-71
2022/03/12 03:18:39;;;;;;;4.78;2.90;;;19.40;45.60;;;;;;5098220;28;20108;-71
2022/03/12 03:21:09;;;;;;;9.23;3.85;;;19.20;45.60;;;;;;5098094;28;20052;-72
2022/03/12 03:23:35;;;;;;;5.13;3.80;;;19.20;45.70;;;;;;5114390;28;20049;-71
2022/03/12 03:26:03;;;;;;;9.20;4.32;;;19.20;45.90;;;;;;5098261;28;20067;-71
2022/03/12 03:28:29;;;;;;;6.22;3.83;;;19.20;45.90;;;;;;5097800;28;20033;-71
2022/03/12 03:30:56;;;;;;;9.90;4.13;;;19.10;46.00;;;;;;5097937;28;20405;-72
2022/03/12 03:33:25;;;;;;;5.15;3.95;;;19.00;46.00;;;;;;5098016;28;20052;-71
2022/03/12 03:35:51;;;;;;;6.18;3.28;;;19.00;46.00;;;;;;5097840;28;20036;-71
2022/03/12 03:38:18;;;;;;;6.97;3.45;;;19.00;46.00;;;;;;5097792;28;20205;-71
2022/03/12 03:40:45;;;;;;;9.85;4.07;;;19.00;46.00;;;;;;5097698;28;20072;-70
2022/03/12 03:43:22;;;;;;;8.18;3.83;;;18.90;45.90;;;;;;5097467;28;20047;-71
2022/03/12 03:45:51;;;;;;;10.35;4.28;;;18.90;45.70;;;;;;5097765;28;20059;-72
2022/03/12 03:48:21;;;;;;;6.03;3.63;;;19.00;45.60;;;;;;5096725;28;20037;-71
2022/03/12 03:50:50;;;;;;;5.55;3.53;;;18.90;45.50;;;;;;5097384;28;20040;-71
2022/03/12 03:53:19;;;;;;;5.18;3.17;;;18.90;45.40;;;;;;5097128;28;20108;-71
2022/03/12 03:55:45;;;;;;;6.60;3.10;;;19.00;45.30;;;;;;5096755;28;20037;-71
2022/03/12 03:58:13;;;;;;;5.57;3.85;;;18.90;45.40;;;;;;5097190;28;20034;-71
2022/03/12 04:00:39;;;;;;;6.72;3.55;;;19.00;45.50;;;;;;5097388;28;20037;-71
2022/03/12 04:03:06;;;;;;;7.07;3.45;;;18.90;45.60;;;;;;5096569;28;20109;-70
2022/03/12 04:05:35;;;;;;;7.40;3.70;;;18.80;45.60;;;;;;5097368;28;20064;-71
2022/03/12 04:08:04;;;;;;;7.85;4.53;;;18.80;45.60;;;;;;5096882;28;20033;-70
2022/03/12 04:10:30;;;;;;;5.38;3.53;;;18.80;45.60;;;;;;5097012;28;20040;-71
2022/03/12 04:12:57;;;;;;;7.22;3.38;;;18.90;45.80;;;;;;5097087;28;20039;-71
2022/03/12 04:15:23;;;;;;;5.53;3.10;;;18.70;45.60;;;;;;5097280;28;20060;-71
2022/03/12 04:17:51;;;;;;;5.10;3.50;;;18.90;45.50;;;;;;5097051;28;20059;-71
2022/03/12 04:20:19;;;;;;;9.63;4.30;;;18.80;45.30;;;;;;5096100;28;20036;-72
2022/03/12 04:22:48;;;;;;;7.28;4.10;;;18.80;45.10;;;;;;5097179;28;20036;-71
2022/03/12 04:25:15;;;;;;;6.63;3.75;;;18.90;45.00;;;;;;5096553;28;20040;-71
2022/03/12 04:27:42;;;;;;;6.20;4.00;;;18.80;44.90;;;;;;5096963;28;20043;-71
2022/03/12 04:30:14;;;;;;;6.57;4.15;;;18.90;44.90;;;;;;5096814;28;20041;-71
2022/03/12 04:32:42;;;;;;;9.13;4.30;;;18.90;44.80;;;;;;5096892;28;20062;-71
2022/03/12 04:35:09;;;;;;;8.88;4.38;;;18.80;44.70;;;;;;5096793;28;20509;-71
2022/03/12 04:37:36;;;;;;;10.68;4.95;;;18.90;44.70;;;;;;5096932;28;20066;-71
2022/03/12 04:40:10;;;;;;;8.35;4.15;;;19.00;44.60;;;;;;5096463;28;20040;-71
2022/03/12 04:42:44;;;;;;;10.70;4.75;;;18.80;44.50;;;;;;5096921;28;20024;-72
2022/03/12 04:45:15;;;;;;;7.93;4.22;;;18.80;44.60;;;;;;5096726;28;20066;-71
2022/03/12 04:47:45;;;;;;;8.07;4.10;;;18.80;44.70;;;;;;5094170;28;20071;-71
2022/03/12 04:50:14;;;;;;;9.15;3.90;;;18.80;44.90;;;;;;5087281;28;20032;-71
2022/03/12 04:52:43;;;;;;;6.97;3.78;;;18.90;46.00;;;;;;5096555;28;20048;-72
2022/03/12 04:55:13;;;;;;;8.25;3.50;;;19.20;45.20;;;;;;5079299;28;20036;-72
2022/03/12 04:57:39;;;;;;;8.15;3.92;;;19.50;44.40;;;;;;5096654;28;20370;-71
2022/03/12 05:00:10;;;;;;;6.63;4.00;;;19.70;43.80;;;;;;5095995;28;20033;-71
2022/03/12 05:02:40;;;;;;;9.75;4.13;;;19.90;43.50;;;;;;5095783;28;20037;-72
2022/03/12 05:05:07;;;;;;;6.60;4.22;;;20.00;42.90;;;;;;5095978;28;20105;-71
2022/03/12 05:07:34;;;;;;;7.30;4.00;;;19.90;43.30;;;;;;5078354;28;20052;-70
2022/03/12 05:10:01;;;;;;;5.45;3.67;;;19.70;43.80;;;;;;5095645;28;20072;-70
2022/03/12 05:12:27;;;;;;;8.88;4.22;;;19.80;46.40;;;;;;5095806;28;20055;-69
2022/03/12 05:14:54;;;;;;;7.28;4.43;;;20.40;46.60;;;;;;5078032;28;20047;-69
2022/03/12 05:17:24;;;;;;;7.88;4.75;;;20.60;48.30;;;;;;5095026;28;20024;-69
2022/03/12 05:19:51;;;;;;;10.63;5.68;;;21.00;47.40;;;;;;5095391;28;20111;-70
2022/03/12 05:22:17;;;;;;;5.68;4.20;;;21.10;48.10;;;;;;5095606;28;20040;-69
2022/03/12 05:24:43;;;;;;;16.13;5.38;;;21.00;41.90;;;;;;5095602;28;20040;-72
2022/03/12 05:27:18;;;;;;;9.25;4.43;;;21.00;39.30;;;;;;5095610;28;20108;-72
2022/03/12 05:29:47;;;;;;;7.50;4.63;;;20.80;36.20;;;;;;5095267;28;20051;-72
2022/03/12 05:32:13;;;;;;;9.02;4.20;;;20.40;36.10;;;;;;5095114;28;20036;-73
2022/03/12 05:34:42;;;;;;;7.43;4.95;;;20.30;36.40;;;;;;5077887;28;20111;-73
2022/03/12 05:37:09;;;;;;;6.28;4.13;;;20.10;37.40;;;;;;5095460;28;20040;-72
2022/03/12 05:39:38;;;;;;;8.30;4.78;;;19.80;38.50;;;;;;5077912;28;20037;-72
2022/03/12 05:42:05;;;;;;;8.43;4.65;;;19.80;39.20;;;;;;5094998;28;20052;-72
2022/03/12 05:44:34;;;;;;;8.85;5.05;;;19.80;40.00;;;;;;5077677;28;20112;-72
2022/03/12 05:47:05;;;;;;;10.25;5.15;;;19.60;40.50;;;;;;5095420;28;20054;-71
2022/03/12 05:49:31;;;;;;;9.90;5.40;;;19.80;44.60;;;;;;5095370;28;20045;-72
2022/03/12 05:51:58;;;;;;;6.32;3.38;;;19.70;41.50;;;;;;5095435;28;20066;-71
2022/03/12 05:54:24;;;;;;;4.38;2.80;;;19.70;41.60;;;;;;5095354;28;20063;-71
2022/03/12 05:56:51;;;;;;;4.88;2.55;;;19.80;39.60;;;;;;5077709;28;20042;-71
2022/03/12 05:59:20;;;;;;;3.78;2.67;;;19.90;34.60;;;;;;5095484;28;20028;-70
2022/03/12 06:01:46;;;;;;;7.53;4.80;;;20.10;35.00;;;;;;5094396;28;20040;-72
2022/03/12 06:04:14;;;;;;;53.78;34.60;;;20.00;32.80;;;;;;5093147;28;20039;-73
2022/03/12 06:06:45;;;;;;;47.28;13.05;;;20.10;38.90;;;;;;5095136;28;20040;-71
2022/03/12 06:09:12;;;;;;;18.55;8.10;;;20.40;46.00;;;;;;5094654;28;20044;-71
2022/03/12 06:11:38;;;;;;;24.92;9.25;;;20.50;35.40;;;;;;5096164;28;20036;-70
2022/03/12 06:14:05;;;;;;;21.08;7.95;;;20.50;39.00;;;;;;5098665;28;20079;-70
2022/03/12 06:16:33;;;;;;;23.17;8.35;;;20.60;41.90;;;;;;5098776;28;20036;-70
2022/03/12 06:18:59;;;;;;;15.57;6.30;;;20.80;41.60;;;;;;5098763;28;20038;-70
2022/03/12 06:21:27;;;;;;;18.58;7.05;;;20.90;42.70;;;;;;5098474;28;20043;-70
2022/03/12 06:23:54;;;;;;;8.32;5.40;;;20.90;38.40;;;;;;5098551;28;20041;-71
2022/03/12 06:26:25;;;;;;;14.93;4.93;;;20.90;34.20;;;;;;5098405;28;20037;-72
2022/03/12 06:28:51;;;;;;;15.20;8.05;;;20.80;31.80;;;;;;5098578;28;20033;-71
2022/03/12 06:31:19;;;;;;;11.93;6.40;;;20.90;34.30;;;;;;5094441;28;20054;-72
2022/03/12 06:33:45;;;;;;;12.52;6.63;;;20.80;31.00;;;;;;5097936;28;20066;-70
2022/03/12 06:36:13;;;;;;;9.88;6.18;;;20.90;42.50;;;;;;5098087;28;20043;-70
2022/03/12 06:38:39;;;;;;;22.38;8.18;;;21.00;32.10;;;;;;5090420;28;20028;-70
2022/03/12 06:41:06;;;;;;;14.05;6.05;;;20.90;32.80;;;;;;5097339;28;20060;-70
2022/03/12 06:43:33;;;;;;;7.15;4.43;;;21.00;31.50;;;;;;5097823;28;20055;-70
2022/03/12 06:46:01;;;;;;;14.80;7.50;;;21.00;32.00;;;;;;5095112;28;20079;-72
2022/03/12 06:48:32;;;;;;;9.90;5.13;;;21.00;31.60;;;;;;5097910;28;20044;-71
2022/03/12 06:50:59;;;;;;;13.40;5.35;;;21.20;32.30;;;;;;5094169;28;20044;-73
2022/03/12 06:53:25;;;;;;;16.10;6.32;;;21.30;44.20;;;;;;5097139;28;20040;-70
2022/03/12 06:55:53;;;;;;;10.80;5.95;;;21.40;45.90;;;;;;5097868;28;20033;-70
2022/03/12 06:58:20;;;;;;;10.13;5.30;;;21.50;46.60;;;;;;5095071;28;20037;-70
2022/03/12 07:00:47;;;;;;;12.15;7.18;;;21.60;47.10;;;;;;5087707;28;20040;-70
2022/03/12 07:03:13;;;;;;;14.02;7.05;;;21.60;47.20;;;;;;5097399;28;20128;-69
2022/03/12 07:05:39;;;;;;;14.60;7.07;;;21.70;48.30;;;;;;5097511;28;20048;-70
2022/03/12 07:08:05;;;;;;;10.68;5.25;;;21.50;48.60;;;;;;5097666;28;20048;-70
2022/03/12 07:10:31;;;;;;;11.90;5.78;;;21.40;49.40;;;;;;5083046;28;20040;-71
2022/03/12 07:12:57;;;;;;;8.25;4.25;;;21.50;49.80;;;;;;5097618;28;20033;-71
2022/03/12 07:15:24;;;;;;;8.32;5.13;;;21.50;50.40;;;;;;5097586;28;20063;-71
2022/03/12 07:17:50;;;;;;;9.30;4.80;;;21.40;50.50;;;;;;5097488;28;20047;-70
2022/03/12 07:20:17;;;;;;;10.02;4.65;;;21.50;50.20;;;;;;5097393;28;20028;-71
2022/03/12 07:22:44;;;;;;;7.40;4.75;;;21.60;50.20;;;;;;5097517;28;20048;-70
2022/03/12 07:25:12;;;;;;;9.48;4.80;;;21.30;50.80;;;;;;5097146;28;20101;-70
2022/03/12 07:27:39;;;;;;;8.93;4.22;;;21.30;51.40;;;;;;5097307;28;20040;-71
2022/03/12 07:30:09;;;;;;;6.03;3.38;;;21.30;52.00;;;;;;5097325;28;20070;-70
2022/03/12 07:32:35;;;;;;;4.00;2.80;;;21.30;52.30;;;;;;5097327;28;20055;-71
2022/03/12 07:35:05;;;;;;;5.20;2.90;;;21.30;51.80;;;;;;5096939;28;20067;-71
2022/03/12 07:37:32;;;;;;;8.15;2.10;;;21.40;50.80;;;;;;5097236;28;20024;-70
2022/03/12 07:39:58;;;;;;;3.55;2.47;;;21.50;51.50;;;;;;5096942;28;20044;-70
2022/03/12 07:42:24;;;;;;;3.50;2.42;;;21.50;50.20;;;;;;5096944;28;20036;-69
2022/03/12 07:44:50;;;;;;;4.38;3.45;;;21.60;47.50;;;;;;5095150;28;20112;-70
2022/03/12 07:47:16;;;;;;;5.65;3.03;;;21.70;44.70;;;;;;5096945;28;20060;-69
2022/03/12 07:49:42;;;;;;;8.25;2.70;;;21.80;42.30;;;;;;5095892;28;20036;-69
2022/03/12 07:52:10;;;;;;;3.90;2.10;;;21.80;41.40;;;;;;5096170;28;20037;-71
2022/03/12 07:54:37;;;;;;;5.22;2.38;;;21.80;39.70;;;;;;5096048;28;20041;-70
2022/03/12 07:57:03;;;;;;;6.35;2.30;;;21.90;39.30;;;;;;5096144;28;20040;-72
2022/03/12 07:59:30;;;;;;;4.47;2.03;;;21.90;38.20;;;;;;5080056;28;20024;-70
2022/03/12 08:01:58;;;;;;;2.70;1.67;;;21.80;37.80;;;;;;5095193;28;20036;-69
2022/03/12 08:04:26;;;;;;;6.57;3.22;;;21.80;38.70;;;;;;5095451;28;20077;-70
2022/03/12 08:06:52;;;;;;;3.17;2.00;;;21.90;39.90;;;;;;5095696;28;20078;-71
2022/03/12 08:09:18;;;;;;;4.03;2.28;;;21.90;40.40;;;;;;5095628;28;20041;-70
2022/03/12 08:11:44;;;;;;;3.22;2.33;;;21.70;40.50;;;;;;5095759;28;20134;-71
2022/03/12 08:14:15;;;;;;;3.15;1.80;;;21.70;41.20;;;;;;5095586;28;20046;-71
2022/03/12 08:16:41;;;;;;;3.75;2.20;;;21.50;41.30;;;;;;5094094;28;20045;-71
2022/03/12 08:19:08;;;;;;;3.10;1.58;;;21.50;42.60;;;;;;5096314;28;20070;-70
2022/03/12 08:21:35;;;;;;;2.88;1.40;;;21.50;43.20;;;;;;5096256;28;20163;-71
2022/03/12 08:24:02;;;;;;;2.03;1.70;;;21.50;44.10;;;;;;5096204;28;20055;-71
2022/03/12 08:26:30;;;;;;;3.42;1.80;;;21.30;44.60;;;;;;5096200;28;20889;-72
2022/03/12 08:28:56;;;;;;;3.28;1.65;;;21.30;45.10;;;;;;5096408;28;20048;-71
2022/03/12 08:31:25;;;;;;;4.70;2.22;;;21.30;45.00;;;;;;5095801;28;20044;-72
2022/03/12 08:33:51;;;;;;;3.55;2.15;;;21.40;45.00;;;;;;5095655;28;20052;-71
2022/03/12 08:36:18;;;;;;;3.53;2.05;;;21.50;46.10;;;;;;5096044;28;20040;-72
2022/03/12 08:38:45;;;;;;;3.15;2.00;;;21.30;45.50;;;;;;5095907;28;20119;-70
2022/03/12 08:41:12;;;;;;;2.17;1.30;;;21.30;47.20;;;;;;5095801;28;20036;-70
2022/03/12 08:43:39;;;;;;;4.65;1.50;;;21.30;46.60;;;;;;5077758;28;20084;-71
2022/03/12 08:46:07;;;;;;;3.45;1.73;;;21.30;46.80;;;;;;5094834;28;20114;-70
2022/03/12 08:48:34;;;;;;;3.33;1.58;;;21.40;48.00;;;;;;5095026;28;20024;-72
2022/03/12 08:51:02;;;;;;;1.13;1.00;;;21.50;46.10;;;;;;5094456;28;20070;-71
2022/03/12 08:53:29;;;;;;;2.03;1.20;;;21.50;47.50;;;;;;5095376;28;20043;-70
2022/03/12 08:55:55;;;;;;;1.05;0.82;;;21.50;47.60;;;;;;5078667;28;20045;-70
2022/03/12 08:58:23;;;;;;;6.28;1.77;;;21.50;46.40;;;;;;5095853;28;20036;-71
2022/03/12 09:00:52;;;;;;;1.35;0.93;;;21.50;52.00;;;;;;5095682;28;20044;-72
2022/03/12 09:03:22;;;;;;;3.38;1.55;;;21.40;51.30;;;;;;5095821;28;20048;-70
2022/03/12 09:05:49;;;;;;;3.10;1.00;;;21.50;51.80;;;;;;5095303;28;20056;-71
2022/03/12 09:08:16;;;;;;;3.10;1.30;;;21.40;52.00;;;;;;5095612;28;20112;-71
2022/03/12 09:10:43;;;;;;;3.75;1.63;;;21.90;55.70;;;;;;5095493;28;20047;-71
2022/03/12 09:13:13;;;;;;;3.78;1.50;;;22.10;48.50;;;;;;5095390;28;20064;-71
2022/03/12 09:15:41;;;;;;;5.28;1.48;;;22.30;44.40;;;;;;5095804;28;20032;-72
2022/03/12 09:18:09;;;;;;;3.75;1.33;;;22.60;52.20;;;;;;5095779;28;20041;-72
2022/03/12 09:20:47;;;;;;;2.63;1.55;;;22.60;48.80;;;;;;5095357;28;20087;-70
2022/03/12 09:23:16;;;;;;;2.45;1.38;;;22.60;48.70;;;;;;5095511;28;20099;-70
2022/03/12 09:25:42;;;;;;;1.40;1.30;;;22.50;48.90;;;;;;5095517;28;20032;-71
2022/03/12 09:28:09;;;;;;;1.73;1.00;;;22.50;49.10;;;;;;5095386;28;20040;-70
2022/03/12 09:30:36;;;;;;;1.75;1.20;;;22.60;48.20;;;;;;5094926;28;20056;-70
2022/03/12 09:33:04;;;;;;;6.05;2.03;;;22.50;49.10;;;;;;5095054;28;20123;-71
2022/03/12 09:35:30;;;;;;;1.63;1.35;;;22.50;50.00;;;;;;5081876;28;20513;-71
2022/03/12 09:37:56;;;;;;;3.05;1.42;;;22.50;49.70;;;;;;5077957;28;20032;-72
2022/03/12 09:40:23;;;;;;;2.38;1.40;;;22.50;47.80;;;;;;5094919;28;20029;-71
2022/03/12 09:42:49;;;;;;;2.28;1.48;;;22.50;48.90;;;;;;5095137;28;20063;-72
2022/03/12 09:45:15;;;;;;;3.28;1.75;;;22.50;48.70;;;;;;5095128;28;20056;-71
2022/03/12 09:47:42;;;;;;;2.10;1.55;;;22.40;48.70;;;;;;5098358;28;20025;-71
2022/03/12 09:50:10;;;;;;;3.80;1.42;;;22.50;47.90;;;;;;5099171;28;20447;-71
2022/03/12 09:52:36;;;;;;;4.88;2.05;;;22.30;45.00;;;;;;5099119;28;20104;-71
2022/03/12 09:55:04;;;;;;;2.90;1.70;;;22.40;36.00;;;;;;5099000;28;20039;-70
2022/03/12 09:57:30;;;;;;;3.92;1.60;;;22.40;40.10;;;;;;5099172;28;20047;-70
2022/03/12 09:59:57;;;;;;;22.60;6.93;;;22.50;35.40;;;;;;5098989;28;20036;-70
2022/03/12 10:02:23;;;;;;;6.07;2.20;;;22.60;35.80;;;;;;5098494;28;20052;-70
2022/03/12 10:04:49;;;;;;;4.20;1.85;;;22.80;33.00;;;;;;5098839;28;20040;-70
2022/03/12 10:07:18;;;;;;;2.78;1.63;;;22.70;30.30;;;;;;5099116;28;20036;-73
2022/03/12 10:09:44;;;;;;;10.35;4.55;;;22.80;41.40;;;;;;5098914;28;20056;-72
2022/03/12 10:12:10;;;;;;;5.55;3.83;;;22.90;42.90;;;;;;5098446;28;20036;-71
2022/03/12 10:14:37;;;;;;;5.38;2.17;;;22.80;43.70;;;;;;5098800;28;20126;-71
2022/03/12 10:17:03;;;;;;;6.10;2.95;;;22.70;45.20;;;;;;5098770;28;20056;-71
2022/03/12 10:19:30;;;;;;;3.95;1.98;;;22.80;47.80;;;;;;5098873;28;20032;-71
2022/03/12 10:21:58;;;;;;;2.25;1.88;;;22.70;32.40;;;;;;5098413;28;20036;-71
2022/03/12 10:24:24;;;;;;;2.53;1.70;;;22.80;29.00;;;;;;5097770;28;20070;-70
2022/03/12 10:26:50;;;;;;;3.42;1.88;;;22.70;27.80;;;;;;5098480;28;20076;-70
2022/03/12 10:29:16;;;;;;;4.47;2.40;;;22.80;29.40;;;;;;5098422;28;20875;-71
2022/03/12 10:31:43;;;;;;;9.40;2.58;;;22.80;29.60;;;;;;5098248;28;20096;-70
2022/03/12 10:34:13;;;;;;;7.82;2.83;;;22.80;28.90;;;;;;5098292;28;20044;-71
2022/03/12 10:36:40;;;;;;;4.57;1.65;;;22.90;29.30;;;;;;5098301;28;20028;-71
2022/03/12 10:39:06;;;;;;;5.75;2.30;;;22.80;31.00;;;;;;5098476;28;20055;-70
2022/03/12 10:41:32;;;;;;;20.88;9.00;;;22.90;29.30;;;;;;5098356;28;20054;-70
2022/03/12 10:43:59;;;;;;;5.60;2.40;;;23.10;40.70;;;;;;5098304;28;20132;-71
2022/03/12 10:46:29;;;;;;;10.48;2.47;;;23.00;44.90;;;;;;5098360;28;20066;-71
2022/03/12 10:48:57;;;;;;;6.18;3.13;;;23.00;45.20;;;;;;5097416;28;20047;-70
2022/03/12 10:51:28;;;;;;;5.35;2.65;;;23.00;46.90;;;;;;5096931;28;20040;-71
2022/03/12 10:54:15;;;;;;;3.80;2.75;;;23.00;47.80;;;;;;5097805;28;20126;-72
2022/03/12 10:56:50;;;;;;;24.48;6.43;;;23.20;52.20;;;;;;5096851;28;20035;-71
2022/03/12 10:59:27;;;;;;;4.93;2.50;;;23.50;51.50;;;;;;5097878;28;20045;-71
2022/03/12 11:01:56;;;;;;;8.43;2.40;;;23.80;44.40;;;;;;5097712;28;20048;-71
2022/03/12 11:04:29;;;;;;;5.47;2.65;;;23.70;40.20;;;;;;5097892;28;20123;-71
2022/03/12 11:06:59;;;;;;;6.88;3.15;;;23.80;40.50;;;;;;5096923;28;20048;-73
2022/03/12 11:09:37;;;;;;;4.68;2.40;;;23.90;49.20;;;;;;5096456;28;20028;-73
2022/03/12 11:12:43;;;;;;;3.88;1.92;;;23.90;50.10;;;;;;5097081;28;20104;-72
2022/03/12 11:15:16;;;;;;;6.10;2.70;;;23.80;49.50;;;;;;5101866;28;20069;-73
2022/03/12 11:17:44;;;;;;;6.53;3.08;;;23.60;49.90;;;;;;5117597;28;20074;-74
2022/03/12 11:20:17;;;;;;;5.18;2.70;;;23.70;50.10;;;;;;5117503;28;20040;-73
2022/03/12 11:22:49;;;;;;;3.92;2.22;;;23.80;49.10;;;;;;5117297;28;20094;-73
2022/03/12 11:25:20;;;;;;;4.85;3.15;;;23.90;47.70;;;;;;5117349;28;20047;-70
2022/03/12 11:27:50;;;;;;;5.18;2.95;;;24.10;47.40;;;;;;5117390;28;20036;-73
2022/03/12 11:30:22;;;;;;;4.85;1.85;;;24.20;47.00;;;;;;5117354;28;20032;-72
2022/03/12 11:33:07;;;;;;;6.05;2.60;;;24.10;47.30;;;;;;5117085;28;20043;-72
2022/03/12 11:35:38;;;;;;;7.40;2.30;;;24.00;47.30;;;;;;5117521;28;20092;-73
2022/03/12 11:38:15;;;;;;;1.55;1.00;;;24.00;47.30;;;;;;5117715;28;20044;-73
2022/03/12 11:40:43;;;;;;;3.47;2.15;;;23.90;47.60;;;;;;5113181;28;20032;-71
2022/03/12 11:43:25;;;;;;;3.20;2.05;;;23.90;47.50;;;;;;5096764;28;20100;-72
2022/03/12 11:45:55;;;;;;;3.72;2.03;;;23.90;47.20;;;;;;5097006;28;20041;-72
2022/03/12 11:48:24;;;;;;;4.97;1.65;;;23.90;47.70;;;;;;5079458;28;20039;-72
2022/03/12 11:50:51;;;;;;;4.28;1.95;;;23.70;47.40;;;;;;5079440;28;20044;-71
2022/03/12 11:53:18;;;;;;;4.18;2.38;;;23.60;47.60;;;;;;5096259;28;20047;-71
2022/03/12 11:55:49;;;;;;;3.65;2.13;;;23.70;48.30;;;;;;5096790;28;20048;-71
2022/03/12 11:58:19;;;;;;;4.57;1.85;;;23.60;48.30;;;;;;5096876;28;20040;-72
2022/03/12 12:00:48;;;;;;;2.78;1.88;;;23.50;48.70;;;;;;5096692;28;20060;-71
2022/03/12 12:03:16;;;;;;;3.28;1.83;;;23.40;49.00;;;;;;5096555;28;20056;-71
2022/03/12 12:05:44;;;;;;;4.70;2.50;;;23.50;49.10;;;;;;5096176;28;20044;-72
2022/03/12 12:08:14;;;;;;;3.28;2.40;;;23.40;49.10;;;;;;5096208;28;20150;-72
2022/03/12 12:10:43;;;;;;;2.70;2.05;;;23.30;50.00;;;;;;5096144;28;20032;-72
2022/03/12 12:13:13;;;;;;;5.25;2.03;;;23.30;51.90;;;;;;5095737;28;20041;-72
2022/03/12 12:15:45;;;;;;;2.58;1.77;;;23.40;51.90;;;;;;5107895;28;20407;-73
2022/03/12 12:18:12;;;;;;;4.15;2.38;;;23.30;51.60;;;;;;5116992;28;20032;-73
2022/03/12 12:20:40;;;;;;;4.40;2.05;;;23.30;51.20;;;;;;5116679;28;20095;-71
2022/03/12 12:23:12;;;;;;;3.20;1.75;;;23.30;50.70;;;;;;5116416;28;20099;-72
2022/03/12 12:25:39;;;;;;;6.13;1.92;;;23.20;51.00;;;;;;5116875;28;20115;-72
2022/03/12 12:28:23;;;;;;;4.95;1.58;;;23.20;48.60;;;;;;5116670;28;20063;-72
2022/03/12 12:30:54;;;;;;;3.65;2.25;;;23.20;50.30;;;;;;5116413;28;20050;-72
2022/03/12 12:33:25;;;;;;;5.75;2.65;;;23.20;47.90;;;;;;5116360;28;20040;-71
2022/03/12 12:36:07;;;;;;;3.40;2.13;;;23.20;49.50;;;;;;5115744;28;20040;-71
2022/03/12 12:38:33;;;;;;;2.35;1.15;;;23.30;50.00;;;;;;5116150;28;20040;-72
2022/03/12 12:41:03;;;;;;;2.85;1.50;;;23.20;49.90;;;;;;5115847;28;20036;-71
2022/03/12 12:43:39;;;;;;;4.05;2.03;;;23.20;49.80;;;;;;5115953;28;20044;-71
2022/03/12 12:46:19;;;;;;;4.07;1.90;;;23.10;49.10;;;;;;5116354;28;20040;-71
2022/03/12 12:49:00;;;;;;;4.15;2.28;;;23.10;48.80;;;;;;5116459;28;20044;-71
2022/03/12 12:51:30;;;;;;;5.55;1.95;;;23.20;44.10;;;;;;5115153;28;20083;-71
2022/03/12 12:54:02;;;;;;;2.28;1.50;;;23.00;47.90;;;;;;5115547;28;20036;-72
2022/03/12 12:56:33;;;;;;;4.03;2.35;;;23.00;48.80;;;;;;5114598;28;20095;-72